createdAt,value
2023-02-16T00:00:28.248Z,55.60
2023-02-16T00:02:56.373Z,55.57
2023-02-16T00:05:27.212Z,55.19
2023-02-16T00:08:02.217Z,55.83
2023-02-16T00:10:36.500Z,55.05
2023-02-16T00:13:45.524Z,55.65
2023-02-16T00:16:22.090Z,55.25
2023-02-16T00:18:50.829Z,54.64
2023-02-16T00:21:19.305Z,54.92
2023-02-16T00:23:48.653Z,54.96
2023-02-16T00:26:20.360Z,55.48
2023-02-16T00:28:51.677Z,54.98
2023-02-16T00:31:27.633Z,55.39
2023-02-16T00:33:56.092Z,54.93
2023-02-16T00:36:23.727Z,54.76
2023-02-16T00:38:51.803Z,54.86
2023-02-16T00:41:41.199Z,54.61
2023-02-16T00:44:18.140Z,54.65
2023-02-16T00:46:46.805Z,54.99
2023-02-16T00:49:23.576Z,55.49
2023-02-16T00:51:51.297Z,54.83
2023-02-16T00:54:19.546Z,54.70
2023-02-16T00:56:47.310Z,55.38
2023-02-16T00:59:20.749Z,55.06
2023-02-16T01:01:49.243Z,56.03
2023-02-16T01:04:22.154Z,55.91
2023-02-16T01:07:08.622Z,56.37
2023-02-16T01:09:55.466Z,56.67
2023-02-16T01:12:23.274Z,56.41
2023-02-16T01:14:55.792Z,56.11
2023-02-16T01:17:24.782Z,55.46
2023-02-16T01:19:54.933Z,54.59
2023-02-16T01:22:22.556Z,54.75
2023-02-16T01:24:50.269Z,54.03
2023-02-16T01:27:18.905Z,55.21
2023-02-16T01:29:46.626Z,54.58
2023-02-16T01:32:16.874Z,54.53
2023-02-16T01:34:44.630Z,54.54
2023-02-16T01:37:16.760Z,53.64
2023-02-16T01:39:44.904Z,53.56
2023-02-16T01:42:32.626Z,55.18
2023-02-16T01:45:05.290Z,54.42
2023-02-16T01:47:42.686Z,55.23
2023-02-16T01:50:16.078Z,55.90
2023-02-16T01:52:48.646Z,55.21
2023-02-16T01:55:33.742Z,56.54
2023-02-16T01:58:16.695Z,56.88
2023-02-16T02:00:53.229Z,57.21
2023-02-16T02:03:48.720Z,57.62
2023-02-16T02:06:20.560Z,57.38
2023-02-16T02:09:06.681Z,57.32
2023-02-16T02:11:42.302Z,57.76
2023-02-16T02:14:16.290Z,57.81
2023-02-16T02:16:59.091Z,58.46
2023-02-16T02:19:31.475Z,58.65
2023-02-16T02:22:28.919Z,58.68
2023-02-16T02:25:22.131Z,59.42
2023-02-16T02:28:22.082Z,58.60
2023-02-16T02:30:59.000Z,58.82
2023-02-16T02:34:05.991Z,59.09
2023-02-16T02:36:46.176Z,58.28
2023-02-16T02:39:39.719Z,57.50
2023-02-16T02:42:32.232Z,57.12
2023-02-16T02:45:12.909Z,56.17
2023-02-16T02:47:47.553Z,55.51
2023-02-16T02:50:37.327Z,56.01
2023-02-16T02:53:10.580Z,55.92
2023-02-16T02:56:02.301Z,55.11
2023-02-16T02:58:53.195Z,55.41
2023-02-16T03:01:22.971Z,56.69
2023-02-16T03:03:55.689Z,57.58
2023-02-16T03:06:36.587Z,57.00
2023-02-16T03:09:12.492Z,56.76
2023-02-16T03:11:58.646Z,57.43
2023-02-16T03:14:33.565Z,56.75
2023-02-16T03:17:24.393Z,56.66
2023-02-16T03:20:11.331Z,57.92
2023-02-16T03:22:59.567Z,58.40
2023-02-16T03:25:49.366Z,57.05
2023-02-16T03:28:39.259Z,57.49
2023-02-16T03:31:10.009Z,58.58
2023-02-16T03:33:38.465Z,57.97
2023-02-16T03:36:07.704Z,57.03
2023-02-16T03:38:36.177Z,56.84
2023-02-16T03:41:04.927Z,57.83
2023-02-16T03:43:32.904Z,58.03
2023-02-16T03:46:00.599Z,58.88
2023-02-16T03:48:28.320Z,58.46
2023-02-16T03:50:55.927Z,58.20
2023-02-16T03:53:23.655Z,58.21
2023-02-16T03:55:51.165Z,58.33
2023-02-16T03:58:22.494Z,57.28
2023-02-16T04:00:51.315Z,57.62
2023-02-16T04:03:19.913Z,57.49
2023-02-16T04:05:47.520Z,57.33
2023-02-16T04:08:15.227Z,57.28
2023-02-16T04:10:42.820Z,57.00
2023-02-16T04:13:10.570Z,56.18
2023-02-16T04:15:38.113Z,56.47
2023-02-16T04:18:05.797Z,56.13
2023-02-16T04:20:34.764Z,56.10
2023-02-16T04:23:03.484Z,56.26
2023-02-16T04:25:31.127Z,55.06
2023-02-16T04:27:59.056Z,55.47
2023-02-16T04:30:30.089Z,55.02
2023-02-16T04:32:59.127Z,54.26
2023-02-16T04:35:26.999Z,53.65
2023-02-16T04:37:54.514Z,53.91
2023-02-16T04:40:22.446Z,54.45
2023-02-16T04:42:50.038Z,53.94
2023-02-16T04:45:17.663Z,52.90
2023-02-16T04:47:45.285Z,53.45
2023-02-16T04:50:13.043Z,53.35
2023-02-16T04:52:41.706Z,53.21
2023-02-16T04:55:11.217Z,53.25
2023-02-16T04:57:40.534Z,52.44
2023-02-16T05:00:09.577Z,51.76
2023-02-16T05:02:37.218Z,51.84
2023-02-16T05:05:04.924Z,51.08
2023-02-16T05:07:32.584Z,51.25
2023-02-16T05:10:00.175Z,50.69
2023-02-16T05:12:45.971Z,50.45
2023-02-16T05:15:13.529Z,50.14
2023-02-16T05:17:41.049Z,50.25
2023-02-16T05:20:09.017Z,49.88
2023-02-16T05:22:39.352Z,49.50
2023-02-16T05:25:07.876Z,49.28
2023-02-16T05:27:35.828Z,48.47
2023-02-16T05:30:03.840Z,48.22
2023-02-16T05:32:32.284Z,47.56
2023-02-16T05:34:59.815Z,46.20
2023-02-16T05:37:27.453Z,46.85
2023-02-16T05:39:55.155Z,46.74
2023-02-16T05:42:22.743Z,46.92
2023-02-16T05:44:50.384Z,45.94
2023-02-16T05:47:17.982Z,44.38
2023-02-16T05:49:45.522Z,44.11
2023-02-16T05:52:13.065Z,43.64
2023-02-16T05:54:40.674Z,43.28
2023-02-16T05:57:10.056Z,43.27
2023-02-16T05:59:37.896Z,43.50
2023-02-16T06:02:58.187Z,41.24
2023-02-16T06:05:26.801Z,40.65
2023-02-16T06:07:54.275Z,40.10
2023-02-16T06:10:22.008Z,39.79
2023-02-16T06:12:49.544Z,38.75
2023-02-16T06:15:18.289Z,36.34
2023-02-16T06:17:45.827Z,37.53
2023-02-16T06:20:13.648Z,37.23
2023-02-16T06:22:41.243Z,36.24
2023-02-16T06:25:08.927Z,36.22
2023-02-16T06:27:36.656Z,34.13
2023-02-16T06:30:05.018Z,34.93
2023-02-16T06:32:33.860Z,34.43
2023-02-16T06:35:01.439Z,34.61
2023-02-16T06:37:31.344Z,31.27
2023-02-16T06:39:58.959Z,31.30
2023-02-16T06:42:26.671Z,32.57
2023-02-16T06:44:54.245Z,30.65
2023-02-16T06:47:21.930Z,30.63
2023-02-16T06:49:49.535Z,29.71
2023-02-16T06:52:17.211Z,28.52
2023-02-16T06:54:44.803Z,28.70
2023-02-16T06:57:12.437Z,28.37
2023-02-16T06:59:40.438Z,28.05
2023-02-16T07:02:07.967Z,29.21
2023-02-16T07:04:35.623Z,28.28
2023-02-16T07:07:04.426Z,27.68
2023-02-16T07:09:32.139Z,26.47
2023-02-16T07:11:59.912Z,26.00
2023-02-16T07:14:27.516Z,26.58
2023-02-16T07:16:55.127Z,27.03
2023-02-16T07:19:22.675Z,25.75
2023-02-16T07:21:50.495Z,25.83
2023-02-16T07:24:18.562Z,24.87
2023-02-16T07:26:46.089Z,24.57
2023-02-16T07:29:13.773Z,24.38
2023-02-16T07:31:41.745Z,25.21
2023-02-16T07:34:09.393Z,26.16
2023-02-16T07:36:37.087Z,26.10
2023-02-16T07:39:04.870Z,25.09
2023-02-16T07:41:32.447Z,26.34
2023-02-16T07:44:08.267Z,25.56
2023-02-16T07:46:36.688Z,24.70
2023-02-16T07:49:04.525Z,25.83
2023-02-16T07:51:32.718Z,25.77
2023-02-16T07:54:01.038Z,27.00
2023-02-16T07:56:31.285Z,26.33
2023-02-16T07:59:00.475Z,26.06
2023-02-16T08:01:30.336Z,25.87
2023-02-16T08:03:58.294Z,26.09
2023-02-16T08:06:25.875Z,25.77
2023-02-16T08:08:53.569Z,26.02
2023-02-16T08:11:24.128Z,26.11
2023-02-16T08:13:53.472Z,26.34
2023-02-16T08:16:23.604Z,26.97
2023-02-16T08:18:52.185Z,27.56
2023-02-16T08:21:25.259Z,27.75
2023-02-16T08:23:59.979Z,28.36
2023-02-16T08:26:33.260Z,29.18
2023-02-16T08:29:02.341Z,29.04
2023-02-16T08:31:32.167Z,30.10
2023-02-16T08:34:02.068Z,30.31
2023-02-16T08:36:35.428Z,30.84
2023-02-16T08:39:06.488Z,31.23
2023-02-16T08:41:36.695Z,32.45
2023-02-16T08:44:06.630Z,32.50
2023-02-16T08:46:36.048Z,32.76
2023-02-16T08:49:04.461Z,32.55
2023-02-16T08:51:37.698Z,33.52
2023-02-16T08:54:08.921Z,34.41
2023-02-16T08:56:37.034Z,34.95
2023-02-16T08:59:04.552Z,35.57
2023-02-16T09:01:32.709Z,35.24
2023-02-16T09:04:00.363Z,36.14
2023-02-16T09:06:27.929Z,36.99
2023-02-16T09:08:57.676Z,37.42
2023-02-16T09:11:25.908Z,37.81
2023-02-16T09:13:53.653Z,37.93
2023-02-16T09:16:23.931Z,38.00
2023-02-16T09:18:52.699Z,38.72
2023-02-16T09:21:23.528Z,38.76
2023-02-16T09:23:51.858Z,39.00
2023-02-16T09:26:21.098Z,39.65
2023-02-16T09:28:49.499Z,39.48
2023-02-16T09:31:27.572Z,40.33
2023-02-16T09:33:58.151Z,40.84
2023-02-16T09:36:26.119Z,40.99
2023-02-16T09:38:54.809Z,40.91
2023-02-16T09:41:35.309Z,41.73
2023-02-16T09:44:22.151Z,41.29
2023-02-16T09:46:50.793Z,41.21
2023-02-16T09:49:41.202Z,42.30
2023-02-16T09:52:08.770Z,42.11
2023-02-16T09:54:48.027Z,43.20
2023-02-16T09:57:41.617Z,43.04
2023-02-16T10:00:38.257Z,43.22
2023-02-16T10:03:13.709Z,43.17
2023-02-16T10:06:08.158Z,43.65
2023-02-16T10:08:50.563Z,43.48
2023-02-16T10:12:01.487Z,43.76
2023-02-16T10:14:51.866Z,44.47
2023-02-16T10:17:38.091Z,43.09
2023-02-16T10:20:30.494Z,45.08
2023-02-16T10:23:23.412Z,46.06
2023-02-16T10:26:01.917Z,45.48
2023-02-16T10:28:43.766Z,45.67
2023-02-16T10:31:34.474Z,45.29
2023-02-16T10:34:24.491Z,46.50
2023-02-16T10:37:02.726Z,45.74
2023-02-16T10:39:32.993Z,45.46
2023-02-16T10:42:16.749Z,45.83
2023-02-16T10:45:18.475Z,46.18
2023-02-16T10:47:47.555Z,45.42
2023-02-16T10:50:33.579Z,45.79
2023-02-16T10:53:16.231Z,45.15
2023-02-16T10:55:43.790Z,47.24
2023-02-16T10:58:35.426Z,47.97
2023-02-16T11:01:11.898Z,47.67
2023-02-16T11:03:47.035Z,48.42
2023-02-16T11:06:17.726Z,47.72
2023-02-16T11:08:58.270Z,48.03
2023-02-16T11:11:27.824Z,47.23
2023-02-16T11:14:01.974Z,48.73
2023-02-16T11:16:30.144Z,49.70
2023-02-16T11:19:00.874Z,50.05
2023-02-16T11:21:47.665Z,50.25
2023-02-16T11:24:33.674Z,49.42
2023-02-16T11:27:19.922Z,50.66
2023-02-16T11:29:47.821Z,51.78
2023-02-16T11:32:18.510Z,52.32
2023-02-16T11:34:48.152Z,52.17
2023-02-16T11:37:24.705Z,50.91
2023-02-16T11:39:54.609Z,52.79
2023-02-16T11:42:33.638Z,52.75
2023-02-16T11:45:03.649Z,52.40
2023-02-16T11:47:36.997Z,51.47
2023-02-16T11:50:27.257Z,51.59
2023-02-16T11:53:15.769Z,50.71
2023-02-16T11:55:46.482Z,50.04
2023-02-16T11:58:25.036Z,50.33
2023-02-16T12:01:16.987Z,50.42
2023-02-16T12:04:00.298Z,49.36
2023-02-16T12:06:43.324Z,48.93
2023-02-16T12:09:30.996Z,50.41
2023-02-16T12:12:10.933Z,50.28
2023-02-16T12:14:50.938Z,50.13
2023-02-16T12:17:28.179Z,52.52
2023-02-16T12:20:27.448Z,51.60
2023-02-16T12:23:33.246Z,51.25
2023-02-16T12:26:07.058Z,50.60
2023-02-16T12:28:39.391Z,49.70
2023-02-16T12:31:28.970Z,49.42
2023-02-16T12:34:14.126Z,49.48
2023-02-16T12:37:20.670Z,49.33
2023-02-16T12:40:06.702Z,48.65
2023-02-16T12:42:40.513Z,47.81
2023-02-16T12:45:14.789Z,47.97
2023-02-16T12:47:55.305Z,47.44
2023-02-16T12:50:28.192Z,46.38
2023-02-16T12:53:06.490Z,46.53
2023-02-16T12:55:56.505Z,46.13
2023-02-16T12:58:25.223Z,45.61
2023-02-16T13:01:12.450Z,46.69
2023-02-16T13:03:54.384Z,47.24
2023-02-16T13:06:43.658Z,46.68
2023-02-16T13:09:20.319Z,47.10
2023-02-16T13:11:58.295Z,46.93
2023-02-16T13:14:35.402Z,46.84
2023-02-16T13:17:18.376Z,46.26
2023-02-16T13:19:47.794Z,46.76
2023-02-16T13:22:18.476Z,46.80
2023-02-16T13:24:51.984Z,47.33
2023-02-16T13:27:28.826Z,46.95
2023-02-16T13:30:37.466Z,47.58
2023-02-16T13:33:14.977Z,46.69
2023-02-16T13:36:37.502Z,47.45
2023-02-16T13:39:18.510Z,47.31
2023-02-16T13:42:26.403Z,48.56
2023-02-16T13:45:03.382Z,48.40
2023-02-16T13:47:38.913Z,48.85
2023-02-16T13:50:31.747Z,49.18
2023-02-16T13:53:10.104Z,48.30
2023-02-16T13:55:40.333Z,47.66
2023-02-16T13:58:13.886Z,48.37
2023-02-16T14:00:42.975Z,47.99
2023-02-16T14:03:22.500Z,47.94
2023-02-16T14:06:28.643Z,48.44
2023-02-16T14:09:11.588Z,49.21
2023-02-16T14:11:53.198Z,49.24
2023-02-16T14:14:43.925Z,48.95
2023-02-16T14:17:21.957Z,48.51
2023-02-16T14:19:58.109Z,48.84
2023-02-16T14:22:43.808Z,49.04
2023-02-16T14:25:21.004Z,49.14
2023-02-16T14:27:59.034Z,49.19
2023-02-16T14:30:32.429Z,49.41
2023-02-16T14:33:16.871Z,49.51
2023-02-16T14:35:46.490Z,50.35
2023-02-16T14:38:30.986Z,50.48
2023-02-16T14:41:09.150Z,50.84
2023-02-16T14:43:46.026Z,51.84
2023-02-16T14:46:35.161Z,50.71
2023-02-16T14:49:30.498Z,50.53
2023-02-16T14:52:30.117Z,49.98
2023-02-16T14:55:09.999Z,49.88
2023-02-16T14:57:43.216Z,50.24
2023-02-16T15:00:29.376Z,50.26
2023-02-16T15:03:00.126Z,50.82
2023-02-16T15:05:31.136Z,51.44
2023-02-16T15:08:16.800Z,50.62
2023-02-16T15:10:47.548Z,52.05
2023-02-16T15:13:33.168Z,52.90
2023-02-16T15:16:03.714Z,52.79
2023-02-16T15:18:43.066Z,53.41
2023-02-16T15:21:28.780Z,54.37
2023-02-16T15:23:59.576Z,53.12
2023-02-16T15:26:31.139Z,53.07
2023-02-16T15:29:01.933Z,53.92
2023-02-16T15:31:37.331Z,54.48
2023-02-16T15:34:08.369Z,52.62
2023-02-16T15:36:44.542Z,54.02
2023-02-16T15:39:38.514Z,54.10
2023-02-16T15:42:32.130Z,53.88
2023-02-16T15:44:59.747Z,54.03
2023-02-16T15:47:27.671Z,54.07
2023-02-16T15:49:55.541Z,52.43
2023-02-16T15:52:43.674Z,53.87
2023-02-16T15:55:13.253Z,54.20
2023-02-16T15:57:41.614Z,55.47
2023-02-16T16:00:22.117Z,54.21
2023-02-16T16:02:58.806Z,54.96
2023-02-16T16:05:26.288Z,56.46
2023-02-16T16:07:55.728Z,57.91
2023-02-16T16:10:32.960Z,57.39
2023-02-16T16:13:17.984Z,57.20
2023-02-16T16:16:34.296Z,57.40
2023-02-16T16:19:17.350Z,56.66
2023-02-16T16:21:56.937Z,57.11
2023-02-16T16:24:40.708Z,57.58
2023-02-16T16:27:15.172Z,57.85
2023-02-16T16:29:48.105Z,57.16
2023-02-16T16:32:20.740Z,57.65
2023-02-16T16:34:49.108Z,57.41
2023-02-16T16:37:22.649Z,57.35
2023-02-16T16:40:27.760Z,57.29
2023-02-16T16:43:09.663Z,56.63
2023-02-16T16:45:47.157Z,56.34
2023-02-16T16:48:20.366Z,55.90
2023-02-16T16:50:49.167Z,56.25
2023-02-16T16:53:32.164Z,56.29
2023-02-16T16:56:01.939Z,56.13
2023-02-16T16:58:29.762Z,55.61
2023-02-16T17:00:57.634Z,54.58
2023-02-16T17:03:25.193Z,55.59
2023-02-16T17:05:52.812Z,55.27
2023-02-16T17:08:20.366Z,54.35
2023-02-16T17:10:47.981Z,53.02
2023-02-16T17:13:19.027Z,54.60
2023-02-16T17:18:57.409Z,54.39
2023-02-16T17:21:25.004Z,54.95
2023-02-16T17:23:53.523Z,55.21
2023-02-16T17:26:22.963Z,54.43
2023-02-16T17:28:51.122Z,53.94
2023-02-16T17:31:18.711Z,54.53
2023-02-16T17:33:46.257Z,54.28
2023-02-16T17:36:15.852Z,53.99
2023-02-16T17:38:47.138Z,54.34
2023-02-16T17:41:27.509Z,55.18
2023-02-16T17:43:55.194Z,55.33
2023-02-16T17:46:23.417Z,55.86
2023-02-16T17:48:54.197Z,56.38
2023-02-16T17:51:31.376Z,56.27
2023-02-16T17:54:02.408Z,57.53
2023-02-16T17:56:32.715Z,56.78
2023-02-16T17:59:00.303Z,56.94
2023-02-16T18:01:28.005Z,57.92
2023-02-16T18:03:55.759Z,59.11
2023-02-16T18:06:28.920Z,58.98
2023-02-16T18:08:57.074Z,59.10
2023-02-16T18:11:24.738Z,58.83
2023-02-16T18:13:52.688Z,60.18
2023-02-16T18:16:25.307Z,60.67
2023-02-16T18:18:53.689Z,60.89
2023-02-16T18:21:21.221Z,60.77
2023-02-16T18:23:48.827Z,60.67
2023-02-16T18:26:17.027Z,59.35
2023-02-16T18:28:45.236Z,59.55
2023-02-16T18:31:13.392Z,60.12
2023-02-16T18:33:41.117Z,59.50
2023-02-16T18:36:09.417Z,59.57
2023-02-16T18:38:37.307Z,60.06
2023-02-16T18:41:05.139Z,61.04
2023-02-16T18:43:32.767Z,62.47
2023-02-16T18:46:04.644Z,62.27
2023-02-16T18:48:32.502Z,61.40
2023-02-16T18:51:03.272Z,61.99
2023-02-16T18:53:30.833Z,62.28
2023-02-16T18:55:58.559Z,61.84
2023-02-16T18:58:26.228Z,61.47
2023-02-16T19:00:53.832Z,61.32
2023-02-16T19:03:21.500Z,62.17
2023-02-16T19:05:49.099Z,61.03
2023-02-16T19:08:16.814Z,60.31
2023-02-16T19:10:44.400Z,61.30
2023-02-16T19:13:12.000Z,61.55
2023-02-16T19:15:39.588Z,62.82
2023-02-16T19:18:07.129Z,61.78
2023-02-16T19:20:35.048Z,61.93
2023-02-16T19:23:02.630Z,61.27
2023-02-16T19:25:30.214Z,61.71
2023-02-16T19:27:57.917Z,61.37
2023-02-16T19:30:25.417Z,60.33
2023-02-16T19:32:53.075Z,60.04
2023-02-16T19:35:20.677Z,59.54
2023-02-16T19:37:48.376Z,58.50
2023-02-16T19:40:16.859Z,58.61
2023-02-16T19:42:44.453Z,58.28
2023-02-16T19:45:12.111Z,58.36
2023-02-16T19:47:39.797Z,57.32
2023-02-16T19:50:07.646Z,56.73
2023-02-16T19:52:35.218Z,56.42
2023-02-16T19:55:02.705Z,56.71
2023-02-16T19:57:31.135Z,57.03
2023-02-16T19:59:58.767Z,57.10
2023-02-16T20:02:26.326Z,56.68
2023-02-16T20:04:54.450Z,56.29
2023-02-16T20:07:21.926Z,56.27
2023-02-16T20:09:49.478Z,56.34
2023-02-16T20:12:16.962Z,56.62
2023-02-16T20:14:44.612Z,56.12
2023-02-16T20:17:12.113Z,55.55
2023-02-16T20:19:39.703Z,56.08
2023-02-16T20:22:07.238Z,56.06
2023-02-16T20:24:35.133Z,55.29
2023-02-16T20:27:04.778Z,55.41
2023-02-16T20:29:32.882Z,55.28
2023-02-16T20:32:01.057Z,55.40
2023-02-16T20:34:28.781Z,55.80
2023-02-16T20:36:56.312Z,54.94
2023-02-16T20:39:24.388Z,56.41
2023-02-16T20:41:51.946Z,56.25
2023-02-16T20:44:21.320Z,55.27
2023-02-16T20:46:52.596Z,55.75
2023-02-16T20:49:20.717Z,55.20
2023-02-16T20:51:48.252Z,55.16
2023-02-16T20:54:15.785Z,55.34
2023-02-16T20:56:43.355Z,54.82
2023-02-16T20:59:11.993Z,54.83
2023-02-16T21:01:46.859Z,55.95
2023-02-16T21:04:18.081Z,56.18
2023-02-16T21:06:45.731Z,56.07
2023-02-16T21:09:14.427Z,56.58
2023-02-16T21:11:42.742Z,56.33
2023-02-16T21:14:12.181Z,56.41
2023-02-16T21:16:41.347Z,56.24
2023-02-16T21:19:20.950Z,57.25
2023-02-16T21:21:50.415Z,57.49
2023-02-16T21:24:18.053Z,57.63
2023-02-16T21:26:45.621Z,57.76
2023-02-16T21:29:13.430Z,57.61
2023-02-16T21:31:41.003Z,57.62
2023-02-16T21:34:08.603Z,57.31
2023-02-16T21:36:37.730Z,56.67
2023-02-16T21:39:05.537Z,56.25
2023-02-16T21:41:33.295Z,55.63
2023-02-16T21:44:04.076Z,55.79
2023-02-16T21:46:40.525Z,55.81
2023-02-16T21:49:13.489Z,54.90
2023-02-16T21:51:42.677Z,54.36
2023-02-16T21:54:14.392Z,53.79
2023-02-16T21:56:51.933Z,54.12
2023-02-16T21:59:22.950Z,54.03
2023-02-16T22:01:52.131Z,54.18
2023-02-16T22:04:22.110Z,53.60
2023-02-16T22:06:51.288Z,53.07
2023-02-16T22:09:22.300Z,53.36
2023-02-16T22:11:51.174Z,52.48
2023-02-16T22:14:19.524Z,52.40
2023-02-16T22:16:48.212Z,53.84
2023-02-16T22:19:17.919Z,53.43
2023-02-16T22:21:46.947Z,52.98
2023-02-16T22:24:17.303Z,53.99
2023-02-16T22:26:46.057Z,54.91
2023-02-16T22:29:14.012Z,54.30
2023-02-16T22:31:46.619Z,53.95
2023-02-16T22:34:17.647Z,53.99
2023-02-16T22:36:46.152Z,54.65
2023-02-16T22:39:15.251Z,54.09
2023-02-16T22:41:43.201Z,54.64
2023-02-16T22:44:12.202Z,54.77
2023-02-16T22:46:39.914Z,55.06
2023-02-16T22:49:07.505Z,55.18
2023-02-16T22:51:35.322Z,54.91
2023-02-16T22:54:03.913Z,55.10
2023-02-16T22:56:32.296Z,55.08
2023-02-16T22:59:00.603Z,55.53
2023-02-16T23:01:30.200Z,56.35
2023-02-16T23:03:59.731Z,56.20
2023-02-16T23:06:30.340Z,56.07
2023-02-16T23:09:00.179Z,56.18
2023-02-16T23:11:28.786Z,56.19
2023-02-16T23:13:56.590Z,55.55
2023-02-16T23:16:25.934Z,56.68
2023-02-16T23:18:55.822Z,55.73
2023-02-16T23:21:32.424Z,56.16
2023-02-16T23:24:00.549Z,55.26
2023-02-16T23:26:30.629Z,55.91
2023-02-16T23:29:01.758Z,56.09
2023-02-16T23:31:35.081Z,55.44
2023-02-16T23:34:03.436Z,55.05
2023-02-16T23:36:32.099Z,55.53
2023-02-16T23:39:01.108Z,55.32
2023-02-16T23:41:28.836Z,55.01
2023-02-16T23:43:56.858Z,55.53
2023-02-16T23:46:25.231Z,54.85
2023-02-16T23:48:52.808Z,55.53
2023-02-16T23:51:20.358Z,54.86
2023-02-16T23:53:47.902Z,54.77
2023-02-16T23:56:22.354Z,55.28
2023-02-16T23:58:50.614Z,54.47
